National Weather Service Raw Text Product

Displaying AFOS PIL: TAFFOD Received: 2017-10-13 05:35 UTC


561 
FTUS43 KDMX 130535
TAFFOD
TAF
KFOD 130535Z 1306/1406 16009KT P6SM BKN040
     FM131200 36005KT P6SM BKN023
     FM131600 01007KT P6SM BKN040
     FM131900 03007KT P6SM VCSH BKN040
     FM140000 05006KT P6SM BKN040=